createdAt,value
2018-09-03T00:02:45.229Z,20.00
2018-09-03T00:07:48.918Z,20.00
2018-09-03T00:12:52.615Z,19.00
2018-09-03T00:17:56.958Z,18.00
2018-09-03T00:23:00.647Z,18.75
2018-09-03T00:28:04.582Z,19.00
2018-09-03T00:33:13.575Z,20.75
2018-09-03T00:38:22.508Z,14.00
2018-09-03T00:43:31.573Z,18.25
2018-09-03T00:48:35.270Z,18.80
2018-09-03T00:53:38.914Z,15.60
2018-09-03T00:58:42.552Z,19.25
2018-09-03T01:03:46.256Z,17.80
2018-09-03T01:08:49.948Z,16.00
2018-09-03T01:13:54.333Z,13.50
2018-09-03T01:18:58.361Z,14.40
2018-09-03T01:24:02.008Z,15.00
2018-09-03T01:29:05.783Z,15.50
2018-09-03T01:34:09.472Z,20.25
2018-09-03T01:39:13.134Z,15.50
2018-09-03T01:44:16.747Z,15.50
2018-09-03T01:49:20.443Z,14.75
2018-09-03T01:54:24.070Z,17.75
2018-09-03T01:59:27.820Z,15.75
2018-09-03T02:04:31.490Z,17.75
2018-09-03T02:09:35.153Z,15.75
2018-09-03T02:14:38.770Z,14.40
2018-09-03T02:19:45.395Z,14.50
2018-09-03T02:24:48.989Z,20.00
2018-09-03T02:29:52.615Z,20.00
2018-09-03T02:34:56.223Z,19.25
2018-09-03T02:39:59.902Z,18.80
2018-09-03T02:45:07.357Z,20.75
2018-09-03T02:50:10.974Z,16.80
2018-09-03T02:55:15.162Z,18.50
2018-09-03T03:00:18.817Z,16.25
2018-09-03T03:05:22.525Z,19.00
2018-09-03T03:10:26.192Z,18.00
2018-09-03T03:15:29.833Z,15.50
2018-09-03T03:20:33.484Z,19.20
2018-09-03T03:25:37.125Z,20.00
2018-09-03T03:30:40.756Z,18.60
2018-09-03T03:35:44.466Z,22.00
2018-09-03T03:40:48.242Z,20.00
2018-09-03T03:45:51.965Z,25.75
2018-09-03T03:50:55.636Z,27.60
2018-09-03T03:55:59.293Z,18.75
2018-09-03T04:01:02.923Z,20.75
2018-09-03T04:06:06.804Z,27.50
2018-09-03T04:11:10.436Z,22.00
2018-09-03T04:16:14.156Z,29.25
2018-09-03T04:21:17.855Z,27.40
2018-09-03T04:26:21.470Z,24.75
2018-09-03T04:31:25.148Z,26.25
2018-09-03T04:36:28.831Z,28.60
2018-09-03T04:41:32.482Z,28.00
2018-09-03T04:46:36.145Z,26.20
2018-09-03T04:51:39.822Z,24.50
2018-09-03T04:56:43.495Z,28.75
2018-09-03T05:01:47.238Z,25.80
2018-09-03T05:06:50.828Z,26.75
2018-09-03T05:11:54.491Z,27.50
2018-09-03T05:16:58.070Z,27.00
2018-09-03T05:22:01.707Z,30.40
2018-09-03T05:27:05.367Z,31.75
2018-09-03T05:32:09.034Z,33.60
2018-09-03T05:37:12.678Z,29.25
2018-09-03T05:42:16.358Z,35.50
2018-09-03T05:47:20.119Z,38.40
2018-09-03T05:52:23.739Z,31.20
2018-09-03T05:57:27.445Z,35.80
2018-09-03T06:02:31.079Z,37.00
2018-09-03T06:07:34.790Z,34.20
2018-09-03T06:12:38.969Z,36.00
2018-09-03T06:17:42.609Z,37.00
2018-09-03T06:22:49.221Z,41.00
2018-09-03T06:27:52.874Z,41.00
2018-09-03T06:32:56.541Z,36.75
2018-09-03T06:38:00.275Z,35.75
2018-09-03T06:43:03.934Z,38.40
2018-09-03T06:48:07.566Z,38.25
2018-09-03T06:53:11.178Z,43.75
2018-09-03T06:58:14.790Z,53.25
2018-09-03T07:03:18.542Z,52.75
2018-09-03T07:08:22.204Z,55.75
2018-09-03T07:13:25.866Z,55.00
2018-09-03T07:18:29.570Z,56.25
2018-09-03T07:23:33.213Z,61.50
2018-09-03T07:28:36.810Z,61.25
2018-09-03T07:33:40.449Z,56.00
2018-09-03T07:38:44.166Z,59.50
2018-09-03T07:43:47.852Z,61.60
2018-09-03T07:48:51.581Z,66.50
2018-09-03T07:53:55.244Z,66.00
2018-09-03T07:58:59.386Z,66.20
2018-09-03T08:04:03.068Z,67.00
2018-09-03T08:09:08.676Z,64.25
2018-09-03T08:14:12.542Z,69.50
2018-09-03T08:19:16.205Z,70.75
2018-09-03T08:24:19.853Z,68.00
2018-09-03T08:29:23.541Z,67.50
2018-09-03T08:34:27.293Z,67.50
2018-09-03T08:39:30.912Z,66.40
2018-09-03T08:44:34.522Z,66.50
2018-09-03T08:49:38.216Z,70.20
2018-09-03T08:54:42.006Z,66.50
2018-09-03T08:59:45.668Z,74.00
2018-09-03T09:04:49.345Z,67.00
2018-09-03T09:09:53.069Z,68.25
2018-09-03T09:14:56.706Z,71.60
2018-09-03T09:20:00.451Z,65.75
2018-09-03T09:25:05.834Z,67.80
2018-09-03T09:30:09.470Z,63.75
2018-09-03T09:35:13.156Z,62.67
2018-09-03T09:40:16.744Z,69.75
2018-09-03T09:45:20.356Z,58.50
2018-09-03T09:50:24.020Z,62.33
2018-09-03T09:55:27.711Z,64.40
2018-09-03T10:00:36.536Z,59.25
2018-09-03T10:05:40.145Z,60.75
2018-09-03T10:10:43.827Z,64.00
2018-09-03T10:15:47.531Z,60.75
2018-09-03T10:20:51.218Z,56.50
2018-09-03T10:25:54.877Z,61.60
2018-09-03T10:30:58.599Z,58.00
2018-09-03T10:36:02.356Z,55.50
2018-09-03T10:41:06.209Z,59.00
2018-09-03T10:46:09.840Z,56.40
2018-09-03T10:51:13.514Z,55.75
2018-09-03T10:56:17.187Z,56.00
2018-09-03T11:01:20.899Z,52.25
2018-09-03T11:06:24.566Z,58.00
2018-09-03T11:11:28.327Z,60.25
2018-09-03T11:16:32.606Z,59.40
2018-09-03T11:21:36.385Z,60.50
2018-09-03T11:26:39.915Z,56.25
2018-09-03T11:31:43.582Z,60.00
2018-09-03T11:36:47.196Z,55.25
2018-09-03T11:41:50.807Z,54.60
2018-09-03T11:46:54.552Z,52.25
2018-09-03T11:51:58.284Z,53.50
2018-09-03T11:57:02.051Z,51.00
2018-09-03T12:02:06.370Z,50.00
2018-09-03T12:07:10.046Z,49.00
2018-09-03T12:12:13.695Z,51.40
2018-09-03T12:17:17.414Z,50.50
2018-09-03T12:22:21.171Z,52.40
2018-09-03T12:27:24.835Z,46.25
2018-09-03T12:32:28.560Z,50.50
2018-09-03T12:37:32.515Z,45.75
2018-09-03T12:42:36.148Z,45.50
2018-09-03T12:47:39.950Z,50.80
2018-09-03T12:52:43.614Z,51.50
2018-09-03T12:57:47.319Z,48.00
2018-09-03T13:02:51.432Z,45.00
2018-09-03T13:07:54.999Z,47.00
2018-09-03T13:12:58.687Z,49.25
2018-09-03T13:18:02.357Z,52.75
2018-09-03T13:23:06.096Z,51.00
2018-09-03T13:28:09.775Z,46.80
2018-09-03T13:38:41.238Z,42.50
2018-09-03T13:43:44.912Z,45.60
2018-09-03T13:48:48.688Z,53.50
2018-09-03T13:53:52.363Z,51.00
2018-09-03T13:58:56.066Z,51.00
2018-09-03T14:03:59.722Z,50.50
2018-09-03T14:09:03.901Z,43.00
2018-09-03T14:14:07.565Z,42.25
2018-09-03T14:19:11.287Z,41.75
2018-09-03T14:24:14.969Z,44.00
2018-09-03T14:29:18.827Z,44.75
2018-09-03T14:34:22.560Z,47.75
2018-09-03T14:39:26.275Z,45.00
2018-09-03T14:44:30.027Z,42.50
2018-09-03T14:49:33.854Z,40.75
2018-09-03T14:54:37.477Z,40.25
2018-09-03T14:59:41.618Z,43.00
2018-09-03T15:04:45.322Z,42.50
2018-09-03T15:09:49.831Z,41.00
2018-09-03T15:14:53.542Z,45.75
2018-09-03T15:19:58.049Z,42.25
2018-09-03T15:25:07.325Z,46.25
2018-09-03T15:30:11.155Z,45.80
2018-09-03T15:35:15.342Z,39.20
2018-09-03T15:40:19.049Z,47.80
2018-09-03T15:45:22.702Z,42.40
2018-09-03T15:50:26.345Z,44.60
2018-09-03T15:55:30.078Z,45.50
2018-09-03T16:00:33.782Z,43.00
2018-09-03T16:05:37.552Z,41.40
2018-09-03T16:10:41.357Z,45.50
2018-09-03T16:15:45.063Z,48.75
2018-09-03T16:20:48.729Z,49.75
2018-09-03T16:25:52.411Z,49.00
2018-09-03T16:30:56.082Z,46.50
2018-09-03T16:35:59.824Z,49.75
2018-09-03T16:41:03.480Z,47.00
2018-09-03T16:46:07.133Z,44.50
2018-09-03T16:51:11.166Z,45.75
2018-09-03T16:56:14.798Z,42.25
2018-09-03T17:01:20.544Z,48.25
2018-09-03T17:06:24.106Z,47.75
2018-09-03T17:11:27.938Z,43.50
2018-09-03T17:16:31.626Z,42.20
2018-09-03T17:21:35.831Z,45.25
2018-09-03T17:26:41.131Z,42.25
2018-09-03T17:31:44.770Z,40.25
2018-09-03T17:36:49.275Z,40.75
2018-09-03T17:41:54.065Z,42.50
2018-09-03T17:46:58.906Z,40.75
2018-09-03T17:52:03.758Z,45.50
2018-09-03T17:57:08.111Z,43.00
2018-09-03T18:02:12.810Z,44.80
2018-09-03T18:07:17.521Z,48.75
2018-09-03T18:12:22.081Z,44.75
2018-09-03T18:17:26.758Z,43.00
2018-09-03T18:22:32.266Z,42.75
2018-09-03T18:59:44.823Z,40.20
2018-09-03T19:05:20.081Z,42.75
2018-09-03T21:14:30.577Z,35.40
2018-09-03T21:19:34.705Z,38.75
2018-09-03T21:24:39.412Z,42.40
2018-09-03T21:29:43.681Z,40.80
2018-09-03T21:34:48.549Z,45.25
2018-09-03T21:39:52.302Z,39.75
2018-09-03T21:44:56.182Z,40.20
2018-09-03T21:49:59.888Z,42.80
2018-09-03T21:55:07.497Z,49.50
2018-09-03T22:00:11.757Z,43.60
2018-09-03T22:05:15.597Z,40.20
2018-09-03T22:10:19.415Z,41.75
2018-09-03T22:15:23.118Z,42.50
2018-09-03T22:20:27.518Z,37.80
2018-09-03T22:25:31.291Z,36.75
2018-09-03T22:30:35.690Z,37.75
2018-09-03T22:35:40.416Z,37.50
2018-09-03T22:40:44.166Z,40.75
2018-09-03T22:45:47.989Z,40.20
2018-09-03T22:50:51.751Z,38.00
2018-09-03T22:55:55.549Z,37.00
2018-09-03T23:00:59.235Z,36.25
2018-09-03T23:06:03.055Z,41.25
2018-09-03T23:11:06.974Z,40.40
2018-09-03T23:16:10.646Z,38.00
2018-09-03T23:21:14.625Z,38.50
2018-09-03T23:26:18.407Z,38.25
2018-09-03T23:31:22.246Z,39.00
2018-09-03T23:36:25.874Z,40.20
2018-09-03T23:41:29.594Z,39.25
2018-09-03T23:46:33.465Z,35.75
2018-09-03T23:51:37.142Z,36.80
2018-09-03T23:56:40.806Z,38.40
